sensor_id;sensor_type;location;lat;lon;timestamp;P1;durP1;ratioP1;P2;durP2;ratioP2
3274;SDS011;1649;53.672;10.064;2023-07-08T00:00:46;11.20;;;7.63;;
3274;SDS011;1649;53.672;10.064;2023-07-08T00:03:13;10.60;;;8.10;;
3274;SDS011;1649;53.672;10.064;2023-07-08T00:05:39;8.83;;;7.73;;
3274;SDS011;1649;53.672;10.064;2023-07-08T00:08:05;9.87;;;7.27;;
3274;SDS011;1649;53.672;10.064;2023-07-08T00:10:30;10.53;;;8.00;;
3274;SDS011;1649;53.672;10.064;2023-07-08T00:12:56;10.50;;;7.60;;
3274;SDS011;1649;53.672;10.064;2023-07-08T00:15:29;17.03;;;8.50;;
3274;SDS011;1649;53.672;10.064;2023-07-08T00:18:00;14.83;;;9.43;;
3274;SDS011;1649;53.672;10.064;2023-07-08T00:20:45;11.67;;;8.37;;
3274;SDS011;1649;53.672;10.064;2023-07-08T00:23:12;11.20;;;7.83;;
3274;SDS011;1649;53.672;10.064;2023-07-08T00:25:38;11.90;;;8.20;;
3274;SDS011;1649;53.672;10.064;2023-07-08T00:28:08;9.93;;;7.53;;
3274;SDS011;1649;53.672;10.064;2023-07-08T00:30:44;9.23;;;7.40;;
3274;SDS011;1649;53.672;10.064;2023-07-08T00:33:10;10.90;;;8.40;;
3274;SDS011;1649;53.672;10.064;2023-07-08T00:35:37;12.77;;;8.40;;
3274;SDS011;1649;53.672;10.064;2023-07-08T00:40:51;10.23;;;8.00;;
3274;SDS011;1649;53.672;10.064;2023-07-08T00:43:23;11.50;;;8.70;;
3274;SDS011;1649;53.672;10.064;2023-07-08T00:49:03;10.03;;;7.93;;
3274;SDS011;1649;53.672;10.064;2023-07-08T00:51:33;10.87;;;8.00;;
3274;SDS011;1649;53.672;10.064;2023-07-08T00:54:02;10.40;;;7.90;;
3274;SDS011;1649;53.672;10.064;2023-07-08T00:56:31;12.30;;;8.20;;
3274;SDS011;1649;53.672;10.064;2023-07-08T00:59:01;10.83;;;8.37;;
3274;SDS011;1649;53.672;10.064;2023-07-08T01:01:31;12.33;;;8.80;;
3274;SDS011;1649;53.672;10.064;2023-07-08T01:04:10;11.57;;;9.10;;
3274;SDS011;1649;53.672;10.064;2023-07-08T01:06:40;14.87;;;8.77;;
3274;SDS011;1649;53.672;10.064;2023-07-08T01:09:10;14.07;;;9.70;;
3274;SDS011;1649;53.672;10.064;2023-07-08T01:11:37;11.00;;;8.20;;
3274;SDS011;1649;53.672;10.064;2023-07-08T01:14:05;11.83;;;9.23;;
3274;SDS011;1649;53.672;10.064;2023-07-08T01:16:34;12.00;;;9.00;;
3274;SDS011;1649;53.672;10.064;2023-07-08T01:19:00;12.53;;;9.03;;
3274;SDS011;1649;53.672;10.064;2023-07-08T01:21:30;10.60;;;9.20;;
3274;SDS011;1649;53.672;10.064;2023-07-08T01:23:58;10.70;;;8.40;;
3274;SDS011;1649;53.672;10.064;2023-07-08T01:26:25;11.80;;;9.10;;
3274;SDS011;1649;53.672;10.064;2023-07-08T01:28:52;11.00;;;8.97;;
3274;SDS011;1649;53.672;10.064;2023-07-08T01:31:18;12.23;;;9.13;;
3274;SDS011;1649;53.672;10.064;2023-07-08T01:33:44;10.93;;;8.80;;
3274;SDS011;1649;53.672;10.064;2023-07-08T01:36:11;12.00;;;9.37;;
3274;SDS011;1649;53.672;10.064;2023-07-08T01:38:36;11.53;;;9.00;;
3274;SDS011;1649;53.672;10.064;2023-07-08T01:41:04;11.73;;;9.10;;
3274;SDS011;1649;53.672;10.064;2023-07-08T01:43:30;10.63;;;8.97;;
3274;SDS011;1649;53.672;10.064;2023-07-08T01:45:56;11.50;;;9.13;;
3274;SDS011;1649;53.672;10.064;2023-07-08T01:48:33;11.23;;;8.87;;
3274;SDS011;1649;53.672;10.064;2023-07-08T01:51:03;12.80;;;9.63;;
3274;SDS011;1649;53.672;10.064;2023-07-08T01:53:32;12.60;;;8.80;;
3274;SDS011;1649;53.672;10.064;2023-07-08T01:55:58;12.10;;;8.70;;
3274;SDS011;1649;53.672;10.064;2023-07-08T01:58:24;10.70;;;9.10;;
3274;SDS011;1649;53.672;10.064;2023-07-08T02:00:50;10.30;;;8.30;;
3274;SDS011;1649;53.672;10.064;2023-07-08T02:03:16;9.97;;;7.60;;
3274;SDS011;1649;53.672;10.064;2023-07-08T02:05:42;12.03;;;8.63;;
3274;SDS011;1649;53.672;10.064;2023-07-08T02:08:07;14.00;;;8.70;;
3274;SDS011;1649;53.672;10.064;2023-07-08T02:10:33;11.30;;;9.43;;
3274;SDS011;1649;53.672;10.064;2023-07-08T02:12:58;11.27;;;9.10;;
3274;SDS011;1649;53.672;10.064;2023-07-08T02:15:25;10.80;;;8.10;;
3274;SDS011;1649;53.672;10.064;2023-07-08T02:17:51;11.97;;;8.87;;
3274;SDS011;1649;53.672;10.064;2023-07-08T02:20:16;13.57;;;9.43;;
3274;SDS011;1649;53.672;10.064;2023-07-08T02:22:42;16.63;;;10.10;;
3274;SDS011;1649;53.672;10.064;2023-07-08T02:25:07;12.87;;;9.50;;
3274;SDS011;1649;53.672;10.064;2023-07-08T02:27:37;11.20;;;8.90;;
3274;SDS011;1649;53.672;10.064;2023-07-08T02:30:03;11.73;;;8.03;;
3274;SDS011;1649;53.672;10.064;2023-07-08T02:32:29;13.47;;;8.70;;
3274;SDS011;1649;53.672;10.064;2023-07-08T02:34:55;11.63;;;9.33;;
3274;SDS011;1649;53.672;10.064;2023-07-08T02:37:20;10.43;;;9.00;;
3274;SDS011;1649;53.672;10.064;2023-07-08T02:39:46;10.60;;;8.30;;
3274;SDS011;1649;53.672;10.064;2023-07-08T02:42:11;13.00;;;8.73;;
3274;SDS011;1649;53.672;10.064;2023-07-08T02:44:37;11.70;;;8.20;;
3274;SDS011;1649;53.672;10.064;2023-07-08T02:47:02;14.60;;;9.50;;
3274;SDS011;1649;53.672;10.064;2023-07-08T02:49:29;11.30;;;8.80;;
3274;SDS011;1649;53.672;10.064;2023-07-08T02:51:55;13.67;;;8.80;;
3274;SDS011;1649;53.672;10.064;2023-07-08T02:54:20;10.73;;;8.70;;
3274;SDS011;1649;53.672;10.064;2023-07-08T02:56:46;10.63;;;8.70;;
3274;SDS011;1649;53.672;10.064;2023-07-08T02:59:11;12.63;;;9.70;;
3274;SDS011;1649;53.672;10.064;2023-07-08T03:01:36;12.37;;;9.23;;
3274;SDS011;1649;53.672;10.064;2023-07-08T03:04:06;13.93;;;9.43;;
3274;SDS011;1649;53.672;10.064;2023-07-08T03:06:38;11.83;;;8.23;;
3274;SDS011;1649;53.672;10.064;2023-07-08T03:09:05;15.47;;;10.00;;
3274;SDS011;1649;53.672;10.064;2023-07-08T03:11:31;13.00;;;9.20;;
3274;SDS011;1649;53.672;10.064;2023-07-08T03:13:56;10.60;;;8.90;;
3274;SDS011;1649;53.672;10.064;2023-07-08T03:16:22;12.97;;;8.93;;
3274;SDS011;1649;53.672;10.064;2023-07-08T03:18:47;12.27;;;9.40;;
3274;SDS011;1649;53.672;10.064;2023-07-08T03:21:14;12.37;;;9.47;;
3274;SDS011;1649;53.672;10.064;2023-07-08T03:23:41;11.60;;;8.80;;
3274;SDS011;1649;53.672;10.064;2023-07-08T03:26:07;12.00;;;9.63;;
3274;SDS011;1649;53.672;10.064;2023-07-08T03:28:37;11.47;;;9.40;;
3274;SDS011;1649;53.672;10.064;2023-07-08T03:31:03;12.17;;;9.33;;
3274;SDS011;1649;53.672;10.064;2023-07-08T03:33:28;12.73;;;9.20;;
3274;SDS011;1649;53.672;10.064;2023-07-08T03:35:54;13.07;;;9.67;;
3274;SDS011;1649;53.672;10.064;2023-07-08T03:38:20;12.30;;;9.30;;
3274;SDS011;1649;53.672;10.064;2023-07-08T03:40:45;14.27;;;10.73;;
3274;SDS011;1649;53.672;10.064;2023-07-08T03:43:11;12.57;;;9.83;;
3274;SDS011;1649;53.672;10.064;2023-07-08T03:45:36;13.60;;;9.80;;
3274;SDS011;1649;53.672;10.064;2023-07-08T03:48:02;17.47;;;10.00;;
3274;SDS011;1649;53.672;10.064;2023-07-08T03:50:28;15.50;;;10.30;;
3274;SDS011;1649;53.672;10.064;2023-07-08T03:52:54;11.83;;;9.90;;
3274;SDS011;1649;53.672;10.064;2023-07-08T03:55:20;13.97;;;10.67;;
3274;SDS011;1649;53.672;10.064;2023-07-08T03:57:46;14.10;;;10.57;;
3274;SDS011;1649;53.672;10.064;2023-07-08T04:00:12;13.50;;;10.17;;
3274;SDS011;1649;53.672;10.064;2023-07-08T04:02:39;12.83;;;10.67;;
3274;SDS011;1649;53.672;10.064;2023-07-08T04:05:05;12.93;;;10.37;;
3274;SDS011;1649;53.672;10.064;2023-07-08T04:07:31;14.13;;;10.73;;
3274;SDS011;1649;53.672;10.064;2023-07-08T04:09:58;12.43;;;10.80;;
3274;SDS011;1649;53.672;10.064;2023-07-08T04:12:24;13.87;;;11.33;;
3274;SDS011;1649;53.672;10.064;2023-07-08T04:14:49;12.30;;;10.20;;
3274;SDS011;1649;53.672;10.064;2023-07-08T04:17:15;10.90;;;9.60;;
3274;SDS011;1649;53.672;10.064;2023-07-08T04:19:43;11.77;;;9.83;;
3274;SDS011;1649;53.672;10.064;2023-07-08T04:22:09;13.50;;;10.33;;
3274;SDS011;1649;53.672;10.064;2023-07-08T04:24:35;12.03;;;10.57;;
3274;SDS011;1649;53.672;10.064;2023-07-08T04:27:01;13.50;;;10.30;;
3274;SDS011;1649;53.672;10.064;2023-07-08T04:29:26;14.13;;;10.53;;
3274;SDS011;1649;53.672;10.064;2023-07-08T04:31:52;12.23;;;10.17;;
3274;SDS011;1649;53.672;10.064;2023-07-08T04:34:18;16.20;;;10.47;;
3274;SDS011;1649;53.672;10.064;2023-07-08T04:36:44;13.87;;;9.13;;
3274;SDS011;1649;53.672;10.064;2023-07-08T04:39:10;13.50;;;9.10;;
3274;SDS011;1649;53.672;10.064;2023-07-08T04:41:36;10.93;;;8.57;;
3274;SDS011;1649;53.672;10.064;2023-07-08T04:44:09;14.27;;;9.50;;
3274;SDS011;1649;53.672;10.064;2023-07-08T04:49:11;12.73;;;9.53;;
3274;SDS011;1649;53.672;10.064;2023-07-08T04:51:38;12.50;;;9.70;;
3274;SDS011;1649;53.672;10.064;2023-07-08T04:54:05;14.73;;;10.10;;
3274;SDS011;1649;53.672;10.064;2023-07-08T04:56:41;11.70;;;8.80;;
3274;SDS011;1649;53.672;10.064;2023-07-08T04:59:09;9.77;;;7.90;;
3274;SDS011;1649;53.672;10.064;2023-07-08T05:01:36;11.90;;;9.20;;
3274;SDS011;1649;53.672;10.064;2023-07-08T05:04:02;12.87;;;8.63;;
3274;SDS011;1649;53.672;10.064;2023-07-08T05:06:30;12.20;;;8.37;;
3274;SDS011;1649;53.672;10.064;2023-07-08T05:08:57;10.07;;;8.60;;
3274;SDS011;1649;53.672;10.064;2023-07-08T05:11:24;12.07;;;8.30;;
3274;SDS011;1649;53.672;10.064;2023-07-08T05:13:49;10.63;;;7.53;;
3274;SDS011;1649;53.672;10.064;2023-07-08T05:16:15;10.50;;;8.07;;
3274;SDS011;1649;53.672;10.064;2023-07-08T05:18:41;10.10;;;7.60;;
3274;SDS011;1649;53.672;10.064;2023-07-08T05:21:06;10.63;;;7.40;;
3274;SDS011;1649;53.672;10.064;2023-07-08T05:23:33;9.70;;;7.50;;
3274;SDS011;1649;53.672;10.064;2023-07-08T05:25:59;9.67;;;7.37;;
3274;SDS011;1649;53.672;10.064;2023-07-08T05:28:25;8.73;;;6.90;;
3274;SDS011;1649;53.672;10.064;2023-07-08T05:30:54;11.47;;;7.57;;
3274;SDS011;1649;53.672;10.064;2023-07-08T05:33:21;9.30;;;7.40;;
3274;SDS011;1649;53.672;10.064;2023-07-08T05:35:50;11.00;;;7.20;;
3274;SDS011;1649;53.672;10.064;2023-07-08T05:38:16;8.23;;;6.77;;
3274;SDS011;1649;53.672;10.064;2023-07-08T05:40:42;10.47;;;7.17;;
3274;SDS011;1649;53.672;10.064;2023-07-08T05:43:08;8.97;;;7.00;;
3274;SDS011;1649;53.672;10.064;2023-07-08T05:45:33;12.77;;;7.50;;
3274;SDS011;1649;53.672;10.064;2023-07-08T05:48:02;10.83;;;6.20;;
3274;SDS011;1649;53.672;10.064;2023-07-08T05:50:27;7.70;;;6.20;;
3274;SDS011;1649;53.672;10.064;2023-07-08T05:52:53;10.53;;;7.10;;
3274;SDS011;1649;53.672;10.064;2023-07-08T05:55:18;9.70;;;6.03;;
3274;SDS011;1649;53.672;10.064;2023-07-08T05:57:44;10.60;;;6.40;;
3274;SDS011;1649;53.672;10.064;2023-07-08T06:00:09;9.30;;;6.17;;
3274;SDS011;1649;53.672;10.064;2023-07-08T06:02:36;10.70;;;5.93;;
3274;SDS011;1649;53.672;10.064;2023-07-08T06:05:01;8.03;;;5.90;;
3274;SDS011;1649;53.672;10.064;2023-07-08T06:07:27;7.70;;;5.90;;
3274;SDS011;1649;53.672;10.064;2023-07-08T06:09:52;8.47;;;5.20;;
3274;SDS011;1649;53.672;10.064;2023-07-08T06:12:20;8.30;;;5.90;;
3274;SDS011;1649;53.672;10.064;2023-07-08T06:14:46;8.17;;;5.80;;
3274;SDS011;1649;53.672;10.064;2023-07-08T06:17:12;10.23;;;5.70;;
3274;SDS011;1649;53.672;10.064;2023-07-08T06:19:37;9.83;;;5.73;;
3274;SDS011;1649;53.672;10.064;2023-07-08T06:22:03;9.70;;;5.80;;
3274;SDS011;1649;53.672;10.064;2023-07-08T06:24:28;7.80;;;5.50;;
3274;SDS011;1649;53.672;10.064;2023-07-08T06:26:54;7.07;;;5.13;;
3274;SDS011;1649;53.672;10.064;2023-07-08T06:29:19;8.90;;;5.23;;
3274;SDS011;1649;53.672;10.064;2023-07-08T06:31:45;8.90;;;5.17;;
3274;SDS011;1649;53.672;10.064;2023-07-08T06:34:10;8.53;;;5.20;;
3274;SDS011;1649;53.672;10.064;2023-07-08T06:36:36;8.03;;;5.13;;
3274;SDS011;1649;53.672;10.064;2023-07-08T06:39:01;7.60;;;4.50;;
3274;SDS011;1649;53.672;10.064;2023-07-08T06:41:27;6.90;;;4.73;;
3274;SDS011;1649;53.672;10.064;2023-07-08T06:43:53;8.63;;;4.67;;
3274;SDS011;1649;53.672;10.064;2023-07-08T06:46:18;7.77;;;4.93;;
3274;SDS011;1649;53.672;10.064;2023-07-08T06:48:44;7.97;;;4.57;;
3274;SDS011;1649;53.672;10.064;2023-07-08T06:51:09;7.20;;;4.80;;
3274;SDS011;1649;53.672;10.064;2023-07-08T06:53:35;6.90;;;4.53;;
3274;SDS011;1649;53.672;10.064;2023-07-08T06:56:00;7.97;;;5.33;;
3274;SDS011;1649;53.672;10.064;2023-07-08T06:58:27;7.17;;;4.83;;
3274;SDS011;1649;53.672;10.064;2023-07-08T07:00:53;7.40;;;4.63;;
3274;SDS011;1649;53.672;10.064;2023-07-08T07:03:18;8.80;;;4.50;;
3274;SDS011;1649;53.672;10.064;2023-07-08T07:05:44;6.43;;;4.57;;
3274;SDS011;1649;53.672;10.064;2023-07-08T07:08:10;8.40;;;3.97;;
3274;SDS011;1649;53.672;10.064;2023-07-08T07:10:35;8.67;;;4.10;;
3274;SDS011;1649;53.672;10.064;2023-07-08T07:13:01;7.00;;;4.57;;
3274;SDS011;1649;53.672;10.064;2023-07-08T07:15:27;7.50;;;4.10;;
3274;SDS011;1649;53.672;10.064;2023-07-08T07:17:55;7.03;;;4.33;;
3274;SDS011;1649;53.672;10.064;2023-07-08T07:20:20;7.30;;;4.30;;
3274;SDS011;1649;53.672;10.064;2023-07-08T07:22:46;8.03;;;4.57;;
3274;SDS011;1649;53.672;10.064;2023-07-08T07:25:11;6.80;;;3.90;;
3274;SDS011;1649;53.672;10.064;2023-07-08T07:27:37;7.10;;;4.30;;
3274;SDS011;1649;53.672;10.064;2023-07-08T07:30:02;5.63;;;3.87;;
3274;SDS011;1649;53.672;10.064;2023-07-08T07:32:28;8.20;;;3.90;;
3274;SDS011;1649;53.672;10.064;2023-07-08T07:34:57;5.57;;;3.50;;
3274;SDS011;1649;53.672;10.064;2023-07-08T07:37:24;6.37;;;4.10;;
3274;SDS011;1649;53.672;10.064;2023-07-08T07:39:49;5.50;;;3.70;;
3274;SDS011;1649;53.672;10.064;2023-07-08T07:42:15;5.40;;;3.23;;
3274;SDS011;1649;53.672;10.064;2023-07-08T07:44:43;5.30;;;3.40;;
3274;SDS011;1649;53.672;10.064;2023-07-08T07:47:09;5.57;;;2.80;;
3274;SDS011;1649;53.672;10.064;2023-07-08T07:49:35;5.13;;;2.77;;
3274;SDS011;1649;53.672;10.064;2023-07-08T07:52:01;5.30;;;2.97;;
3274;SDS011;1649;53.672;10.064;2023-07-08T07:54:27;4.90;;;3.07;;
3274;SDS011;1649;53.672;10.064;2023-07-08T07:56:53;5.70;;;2.80;;
3274;SDS011;1649;53.672;10.064;2023-07-08T07:59:18;4.47;;;2.63;;
3274;SDS011;1649;53.672;10.064;2023-07-08T08:01:44;4.03;;;2.40;;
3274;SDS011;1649;53.672;10.064;2023-07-08T08:04:10;4.70;;;2.80;;
3274;SDS011;1649;53.672;10.064;2023-07-08T08:06:36;7.53;;;3.10;;
3274;SDS011;1649;53.672;10.064;2023-07-08T08:09:02;5.00;;;2.90;;
3274;SDS011;1649;53.672;10.064;2023-07-08T08:11:29;4.90;;;2.90;;
3274;SDS011;1649;53.672;10.064;2023-07-08T08:13:55;5.90;;;2.70;;
3274;SDS011;1649;53.672;10.064;2023-07-08T08:16:21;5.03;;;2.87;;
3274;SDS011;1649;53.672;10.064;2023-07-08T08:18:46;4.00;;;2.43;;
3274;SDS011;1649;53.672;10.064;2023-07-08T08:21:12;5.00;;;2.80;;
3274;SDS011;1649;53.672;10.064;2023-07-08T08:23:38;6.47;;;2.63;;
3274;SDS011;1649;53.672;10.064;2023-07-08T08:26:03;5.13;;;2.60;;
3274;SDS011;1649;53.672;10.064;2023-07-08T08:28:29;6.63;;;3.13;;
3274;SDS011;1649;53.672;10.064;2023-07-08T08:30:54;5.67;;;3.00;;
3274;SDS011;1649;53.672;10.064;2023-07-08T08:33:20;4.43;;;2.60;;
3274;SDS011;1649;53.672;10.064;2023-07-08T08:35:46;5.57;;;2.97;;
3274;SDS011;1649;53.672;10.064;2023-07-08T08:38:11;4.50;;;2.47;;
3274;SDS011;1649;53.672;10.064;2023-07-08T08:40:38;6.83;;;3.00;;
3274;SDS011;1649;53.672;10.064;2023-07-08T08:43:06;5.33;;;2.50;;
3274;SDS011;1649;53.672;10.064;2023-07-08T08:45:39;3.97;;;2.53;;
3274;SDS011;1649;53.672;10.064;2023-07-08T08:48:11;6.43;;;3.20;;
3274;SDS011;1649;53.672;10.064;2023-07-08T08:50:43;4.70;;;2.23;;
3274;SDS011;1649;53.672;10.064;2023-07-08T08:53:14;5.40;;;3.13;;
3274;SDS011;1649;53.672;10.064;2023-07-08T08:55:42;5.17;;;3.00;;
3274;SDS011;1649;53.672;10.064;2023-07-08T09:03:22;4.73;;;2.80;;
3274;SDS011;1649;53.672;10.064;2023-07-08T09:05:59;6.00;;;3.23;;
3274;SDS011;1649;53.672;10.064;2023-07-08T09:08:31;5.40;;;2.70;;
3274;SDS011;1649;53.672;10.064;2023-07-08T09:13:38;4.13;;;2.90;;
3274;SDS011;1649;53.672;10.064;2023-07-08T09:16:14;4.97;;;2.80;;
3274;SDS011;1649;53.672;10.064;2023-07-08T09:21:24;7.27;;;2.90;;
3274;SDS011;1649;53.672;10.064;2023-07-08T09:23:54;5.10;;;3.00;;
3274;SDS011;1649;53.672;10.064;2023-07-08T09:26:25;5.80;;;2.73;;
3274;SDS011;1649;53.672;10.064;2023-07-08T09:28:53;4.67;;;2.90;;
3274;SDS011;1649;53.672;10.064;2023-07-08T09:31:26;5.87;;;2.90;;
3274;SDS011;1649;53.672;10.064;2023-07-08T09:34:09;7.90;;;3.47;;
3274;SDS011;1649;53.672;10.064;2023-07-08T09:36:40;6.83;;;2.83;;
3274;SDS011;1649;53.672;10.064;2023-07-08T09:39:15;5.20;;;2.80;;
3274;SDS011;1649;53.672;10.064;2023-07-08T09:41:43;6.10;;;2.80;;
3274;SDS011;1649;53.672;10.064;2023-07-08T09:44:24;5.50;;;2.80;;
3274;SDS011;1649;53.672;10.064;2023-07-08T09:46:54;5.90;;;3.30;;
3274;SDS011;1649;53.672;10.064;2023-07-08T09:49:23;4.60;;;2.80;;
3274;SDS011;1649;53.672;10.064;2023-07-08T09:51:53;4.73;;;2.80;;
3274;SDS011;1649;53.672;10.064;2023-07-08T09:54:20;3.80;;;2.37;;
3274;SDS011;1649;53.672;10.064;2023-07-08T09:57:00;5.53;;;3.17;;
3274;SDS011;1649;53.672;10.064;2023-07-08T09:59:43;4.93;;;3.00;;
3274;SDS011;1649;53.672;10.064;2023-07-08T10:02:22;6.23;;;3.33;;
3274;SDS011;1649;53.672;10.064;2023-07-08T10:04:59;7.80;;;3.30;;
3274;SDS011;1649;53.672;10.064;2023-07-08T10:07:28;5.10;;;3.03;;
3274;SDS011;1649;53.672;10.064;2023-07-08T10:09:57;5.00;;;3.07;;
3274;SDS011;1649;53.672;10.064;2023-07-08T10:12:24;6.67;;;3.00;;
3274;SDS011;1649;53.672;10.064;2023-07-08T10:14:52;4.80;;;2.60;;
3274;SDS011;1649;53.672;10.064;2023-07-08T10:17:23;7.07;;;3.20;;
3274;SDS011;1649;53.672;10.064;2023-07-08T10:19:48;4.57;;;2.80;;
3274;SDS011;1649;53.672;10.064;2023-07-08T10:27:49;7.93;;;3.30;;
3274;SDS011;1649;53.672;10.064;2023-07-08T10:30:32;5.03;;;3.23;;
3274;SDS011;1649;53.672;10.064;2023-07-08T10:35:45;5.87;;;3.27;;
3274;SDS011;1649;53.672;10.064;2023-07-08T10:38:37;5.30;;;3.40;;
3274;SDS011;1649;53.672;10.064;2023-07-08T10:41:11;6.03;;;3.70;;
3274;SDS011;1649;53.672;10.064;2023-07-08T10:44:05;6.63;;;3.70;;
3274;SDS011;1649;53.672;10.064;2023-07-08T10:46:55;4.90;;;3.13;;
3274;SDS011;1649;53.672;10.064;2023-07-08T10:52:27;7.47;;;3.27;;
3274;SDS011;1649;53.672;10.064;2023-07-08T11:06:07;6.87;;;3.30;;
3274;SDS011;1649;53.672;10.064;2023-07-08T11:08:39;5.50;;;3.23;;
3274;SDS011;1649;53.672;10.064;2023-07-08T11:14:10;5.23;;;3.40;;
3274;SDS011;1649;53.672;10.064;2023-07-08T11:16:49;6.33;;;3.80;;
3274;SDS011;1649;53.672;10.064;2023-07-08T11:19:22;5.17;;;3.20;;
3274;SDS011;1649;53.672;10.064;2023-07-08T11:21:54;5.53;;;3.70;;
3274;SDS011;1649;53.672;10.064;2023-07-08T11:24:26;5.40;;;3.20;;
3274;SDS011;1649;53.672;10.064;2023-07-08T11:27:20;16.77;;;4.20;;
3274;SDS011;1649;53.672;10.064;2023-07-08T11:29:54;5.00;;;3.53;;
3274;SDS011;1649;53.672;10.064;2023-07-08T11:32:30;4.97;;;3.50;;
3274;SDS011;1649;53.672;10.064;2023-07-08T11:34:58;5.63;;;3.50;;
3274;SDS011;1649;53.672;10.064;2023-07-08T11:37:27;4.83;;;3.40;;
3274;SDS011;1649;53.672;10.064;2023-07-08T11:40:08;5.50;;;3.80;;
3274;SDS011;1649;53.672;10.064;2023-07-08T11:42:44;5.83;;;3.63;;
3274;SDS011;1649;53.672;10.064;2023-07-08T11:45:26;5.60;;;3.37;;
3274;SDS011;1649;53.672;10.064;2023-07-08T11:47:55;10.00;;;3.60;;
3274;SDS011;1649;53.672;10.064;2023-07-08T11:50:38;6.70;;;3.70;;
3274;SDS011;1649;53.672;10.064;2023-07-08T11:53:08;5.10;;;3.40;;
3274;SDS011;1649;53.672;10.064;2023-07-08T11:58:22;6.30;;;3.97;;
3274;SDS011;1649;53.672;10.064;2023-07-08T12:00:58;5.27;;;3.77;;
3274;SDS011;1649;53.672;10.064;2023-07-08T12:03:35;6.77;;;3.73;;
3274;SDS011;1649;53.672;10.064;2023-07-08T12:08:52;8.23;;;3.73;;
3274;SDS011;1649;53.672;10.064;2023-07-08T12:11:18;6.87;;;3.90;;
3274;SDS011;1649;53.672;10.064;2023-07-08T12:13:49;5.90;;;4.27;;
3274;SDS011;1649;53.672;10.064;2023-07-08T12:16:20;7.00;;;3.90;;
3274;SDS011;1649;53.672;10.064;2023-07-08T12:18:46;5.20;;;3.90;;
3274;SDS011;1649;53.672;10.064;2023-07-08T12:21:14;7.30;;;3.77;;
3274;SDS011;1649;53.672;10.064;2023-07-08T12:23:46;5.37;;;3.80;;
3274;SDS011;1649;53.672;10.064;2023-07-08T12:26:12;9.07;;;4.00;;
3274;SDS011;1649;53.672;10.064;2023-07-08T12:28:39;5.40;;;3.80;;
3274;SDS011;1649;53.672;10.064;2023-07-08T12:33:41;6.27;;;3.90;;
3274;SDS011;1649;53.672;10.064;2023-07-08T12:36:09;4.90;;;3.40;;
3274;SDS011;1649;53.672;10.064;2023-07-08T12:38:40;6.43;;;3.60;;
3274;SDS011;1649;53.672;10.064;2023-07-08T12:41:11;6.00;;;3.87;;
3274;SDS011;1649;53.672;10.064;2023-07-08T12:43:38;5.30;;;3.50;;
3274;SDS011;1649;53.672;10.064;2023-07-08T12:46:03;5.97;;;3.87;;
3274;SDS011;1649;53.672;10.064;2023-07-08T12:48:33;5.57;;;3.77;;
3274;SDS011;1649;53.672;10.064;2023-07-08T12:50:59;6.33;;;4.00;;
3274;SDS011;1649;53.672;10.064;2023-07-08T12:53:25;6.00;;;3.67;;
3274;SDS011;1649;53.672;10.064;2023-07-08T12:55:51;5.93;;;3.63;;
3274;SDS011;1649;53.672;10.064;2023-07-08T12:58:22;6.50;;;3.57;;
3274;SDS011;1649;53.672;10.064;2023-07-08T13:00:50;5.30;;;3.50;;
3274;SDS011;1649;53.672;10.064;2023-07-08T13:03:18;5.40;;;3.87;;
3274;SDS011;1649;53.672;10.064;2023-07-08T13:05:46;7.40;;;3.83;;
3274;SDS011;1649;53.672;10.064;2023-07-08T13:08:14;8.07;;;3.73;;
3274;SDS011;1649;53.672;10.064;2023-07-08T13:10:42;5.33;;;3.87;;
3274;SDS011;1649;53.672;10.064;2023-07-08T13:13:11;6.03;;;3.60;;
3274;SDS011;1649;53.672;10.064;2023-07-08T13:15:40;5.00;;;3.20;;
3274;SDS011;1649;53.672;10.064;2023-07-08T13:18:17;6.53;;;3.90;;
3274;SDS011;1649;53.672;10.064;2023-07-08T13:20:47;7.10;;;4.07;;
3274;SDS011;1649;53.672;10.064;2023-07-08T13:23:17;6.50;;;4.03;;
3274;SDS011;1649;53.672;10.064;2023-07-08T13:25:42;7.60;;;3.73;;
3274;SDS011;1649;53.672;10.064;2023-07-08T13:28:15;7.40;;;3.70;;
3274;SDS011;1649;53.672;10.064;2023-07-08T13:30:51;7.70;;;3.80;;
3274;SDS011;1649;53.672;10.064;2023-07-08T13:33:18;7.20;;;4.00;;
3274;SDS011;1649;53.672;10.064;2023-07-08T13:35:44;6.70;;;3.77;;
3274;SDS011;1649;53.672;10.064;2023-07-08T13:38:14;6.37;;;3.83;;
3274;SDS011;1649;53.672;10.064;2023-07-08T13:40:44;6.93;;;3.80;;
3274;SDS011;1649;53.672;10.064;2023-07-08T13:43:11;5.60;;;3.70;;
3274;SDS011;1649;53.672;10.064;2023-07-08T13:45:37;6.00;;;3.50;;
3274;SDS011;1649;53.672;10.064;2023-07-08T13:48:14;6.93;;;4.00;;
3274;SDS011;1649;53.672;10.064;2023-07-08T13:50:46;6.90;;;3.70;;
3274;SDS011;1649;53.672;10.064;2023-07-08T13:53:23;5.40;;;3.90;;
3274;SDS011;1649;53.672;10.064;2023-07-08T13:56:01;6.80;;;4.07;;
3274;SDS011;1649;53.672;10.064;2023-07-08T13:58:29;5.90;;;4.10;;
3274;SDS011;1649;53.672;10.064;2023-07-08T14:00:55;7.03;;;4.23;;
3274;SDS011;1649;53.672;10.064;2023-07-08T14:03:22;6.33;;;3.90;;
3274;SDS011;1649;53.672;10.064;2023-07-08T14:05:48;5.33;;;3.73;;
3274;SDS011;1649;53.672;10.064;2023-07-08T14:08:15;7.43;;;3.53;;
3274;SDS011;1649;53.672;10.064;2023-07-08T14:10:42;6.70;;;4.20;;
3274;SDS011;1649;53.672;10.064;2023-07-08T14:13:08;6.60;;;4.20;;
3274;SDS011;1649;53.672;10.064;2023-07-08T14:15:35;5.53;;;4.00;;
3274;SDS011;1649;53.672;10.064;2023-07-08T14:18:03;7.23;;;4.10;;
3274;SDS011;1649;53.672;10.064;2023-07-08T14:20:29;7.50;;;4.07;;
3274;SDS011;1649;53.672;10.064;2023-07-08T14:22:55;6.97;;;4.20;;
3274;SDS011;1649;53.672;10.064;2023-07-08T14:25:20;6.60;;;4.33;;
3274;SDS011;1649;53.672;10.064;2023-07-08T14:27:48;6.83;;;4.40;;
3274;SDS011;1649;53.672;10.064;2023-07-08T14:30:17;5.93;;;3.90;;
3274;SDS011;1649;53.672;10.064;2023-07-08T14:32:42;5.57;;;3.90;;
3274;SDS011;1649;53.672;10.064;2023-07-08T14:35:16;5.90;;;3.90;;
3274;SDS011;1649;53.672;10.064;2023-07-08T14:37:45;6.00;;;3.60;;
3274;SDS011;1649;53.672;10.064;2023-07-08T14:40:22;7.53;;;4.00;;
3274;SDS011;1649;53.672;10.064;2023-07-08T14:43:00;6.53;;;4.50;;
3274;SDS011;1649;53.672;10.064;2023-07-08T14:45:29;5.43;;;3.70;;
3274;SDS011;1649;53.672;10.064;2023-07-08T14:47:56;6.20;;;4.27;;
3274;SDS011;1649;53.672;10.064;2023-07-08T14:50:22;5.73;;;4.20;;
3274;SDS011;1649;53.672;10.064;2023-07-08T14:52:47;5.83;;;3.83;;
3274;SDS011;1649;53.672;10.064;2023-07-08T14:55:13;7.13;;;3.70;;
3274;SDS011;1649;53.672;10.064;2023-07-08T14:57:40;6.00;;;4.13;;
3274;SDS011;1649;53.672;10.064;2023-07-08T15:00:11;8.57;;;4.37;;
3274;SDS011;1649;53.672;10.064;2023-07-08T15:02:40;5.80;;;4.10;;
3274;SDS011;1649;53.672;10.064;2023-07-08T15:05:17;6.40;;;3.90;;
3274;SDS011;1649;53.672;10.064;2023-07-08T15:07:48;6.30;;;4.07;;
3274;SDS011;1649;53.672;10.064;2023-07-08T15:10:18;7.20;;;4.03;;
3274;SDS011;1649;53.672;10.064;2023-07-08T15:12:45;5.93;;;4.03;;
3274;SDS011;1649;53.672;10.064;2023-07-08T15:15:15;5.83;;;3.90;;
3274;SDS011;1649;53.672;10.064;2023-07-08T15:17:51;6.20;;;4.23;;
3274;SDS011;1649;53.672;10.064;2023-07-08T15:20:17;7.90;;;4.20;;
3274;SDS011;1649;53.672;10.064;2023-07-08T15:22:43;8.60;;;4.20;;
3274;SDS011;1649;53.672;10.064;2023-07-08T15:25:13;5.80;;;3.77;;
3274;SDS011;1649;53.672;10.064;2023-07-08T15:27:39;8.03;;;4.10;;
3274;SDS011;1649;53.672;10.064;2023-07-08T15:30:13;7.70;;;3.63;;
3274;SDS011;1649;53.672;10.064;2023-07-08T15:32:41;6.93;;;3.67;;
3274;SDS011;1649;53.672;10.064;2023-07-08T15:35:10;9.50;;;3.80;;
3274;SDS011;1649;53.672;10.064;2023-07-08T15:37:41;6.57;;;4.00;;
3274;SDS011;1649;53.672;10.064;2023-07-08T15:40:07;6.43;;;3.77;;
3274;SDS011;1649;53.672;10.064;2023-07-08T15:42:36;5.93;;;3.77;;
3274;SDS011;1649;53.672;10.064;2023-07-08T15:45:20;6.30;;;3.87;;
3274;SDS011;1649;53.672;10.064;2023-07-08T15:47:46;6.90;;;3.83;;
3274;SDS011;1649;53.672;10.064;2023-07-08T15:50:13;5.70;;;3.73;;
3274;SDS011;1649;53.672;10.064;2023-07-08T15:52:40;6.60;;;3.40;;
3274;SDS011;1649;53.672;10.064;2023-07-08T15:55:07;8.10;;;4.03;;